Whiteface, Texas
Current Conditions -  °F | °C
As of 11:53 AM on Friday 24 Oct 2014 (Local Time) from KLBB Reporting Station
Few Clouds Few Clouds  
Wind Chill: 77°   Ceiling: Unl
Heat Index: 79°   Visibility: 10mi
Dew Point: 58°   Wind: 13mph
Humidity: 52%   Direction: 230°SW
Pressure: 30.19"   Gusts: NA
Location:  33.6°N, 102.61°W
Report Text: KLBB 241653Z 23011KT 10SM FEW250 25/14 A3019 RMK AO2 SLP182 T02500144
Loading
Personal Weather Stations






























Interactive Weather Map
Tropical Storm Tracking
New forecast layout! Learn more

10-Day Weather Forecast

Advertisements
Track Severe Weather on mobile